sensor_id;sensor_type;location;lat;lon;timestamp;P1;durP1;ratioP1;P2;durP2;ratioP2
11907;SDS011;6014;47.690;9.130;2023-04-30T00:00:57;5.70;;;2.90;;
11907;SDS011;6014;47.690;9.130;2023-04-30T00:03:25;6.30;;;3.60;;
11907;SDS011;6014;47.690;9.130;2023-04-30T00:05:54;6.10;;;2.90;;
11907;SDS011;6014;47.690;9.130;2023-04-30T00:08:22;10.70;;;3.45;;
11907;SDS011;6014;47.690;9.130;2023-04-30T00:10:52;7.05;;;3.95;;
11907;SDS011;6014;47.690;9.130;2023-04-30T00:13:20;7.13;;;3.78;;
11907;SDS011;6014;47.690;9.130;2023-04-30T00:15:48;6.50;;;3.63;;
11907;SDS011;6014;47.690;9.130;2023-04-30T00:18:18;7.18;;;4.05;;
11907;SDS011;6014;47.690;9.130;2023-04-30T00:20:46;6.78;;;3.70;;
11907;SDS011;6014;47.690;9.130;2023-04-30T00:23:17;7.00;;;4.35;;
11907;SDS011;6014;47.690;9.130;2023-04-30T00:25:45;8.95;;;3.75;;
11907;SDS011;6014;47.690;9.130;2023-04-30T00:28:14;9.50;;;4.15;;
11907;SDS011;6014;47.690;9.130;2023-04-30T00:30:42;8.20;;;3.63;;
11907;SDS011;6014;47.690;9.130;2023-04-30T00:33:11;6.70;;;3.10;;
11907;SDS011;6014;47.690;9.130;2023-04-30T00:35:39;9.77;;;3.33;;
11907;SDS011;6014;47.690;9.130;2023-04-30T00:38:08;6.32;;;3.40;;
11907;SDS011;6014;47.690;9.130;2023-04-30T00:40:35;6.68;;;3.58;;
11907;SDS011;6014;47.690;9.130;2023-04-30T00:43:05;7.90;;;3.92;;
11907;SDS011;6014;47.690;9.130;2023-04-30T00:45:35;5.88;;;3.42;;
11907;SDS011;6014;47.690;9.130;2023-04-30T00:48:03;8.20;;;4.10;;
11907;SDS011;6014;47.690;9.130;2023-04-30T00:50:31;9.38;;;4.20;;
11907;SDS011;6014;47.690;9.130;2023-04-30T00:53:03;6.35;;;3.28;;
11907;SDS011;6014;47.690;9.130;2023-04-30T00:55:31;6.70;;;3.50;;
11907;SDS011;6014;47.690;9.130;2023-04-30T00:57:59;7.68;;;4.10;;
11907;SDS011;6014;47.690;9.130;2023-04-30T01:00:28;6.68;;;3.42;;
11907;SDS011;6014;47.690;9.130;2023-04-30T01:02:58;6.45;;;3.45;;
11907;SDS011;6014;47.690;9.130;2023-04-30T01:05:26;7.80;;;3.80;;
11907;SDS011;6014;47.690;9.130;2023-04-30T01:07:54;7.78;;;3.70;;
11907;SDS011;6014;47.690;9.130;2023-04-30T01:10:24;7.20;;;3.83;;
11907;SDS011;6014;47.690;9.130;2023-04-30T01:13:00;9.00;;;4.37;;
11907;SDS011;6014;47.690;9.130;2023-04-30T01:15:34;7.30;;;4.10;;
11907;SDS011;6014;47.690;9.130;2023-04-30T01:18:08;8.38;;;4.20;;
11907;SDS011;6014;47.690;9.130;2023-04-30T01:20:42;6.53;;;3.63;;
11907;SDS011;6014;47.690;9.130;2023-04-30T01:23:17;9.80;;;3.97;;
11907;SDS011;6014;47.690;9.130;2023-04-30T01:25:59;9.23;;;4.53;;
11907;SDS011;6014;47.690;9.130;2023-04-30T01:28:41;6.75;;;3.47;;
11907;SDS011;6014;47.690;9.130;2023-04-30T01:31:12;6.47;;;3.70;;
11907;SDS011;6014;47.690;9.130;2023-04-30T01:33:40;8.40;;;3.70;;
11907;SDS011;6014;47.690;9.130;2023-04-30T01:41:53;8.97;;;3.90;;
11907;SDS011;6014;47.690;9.130;2023-04-30T01:44:35;8.67;;;3.63;;
11907;SDS011;6014;47.690;9.130;2023-04-30T01:47:16;8.00;;;4.40;;
11907;SDS011;6014;47.690;9.130;2023-04-30T01:49:54;8.10;;;3.85;;
11907;SDS011;6014;47.690;9.130;2023-04-30T01:52:27;10.43;;;5.27;;
11907;SDS011;6014;47.690;9.130;2023-04-30T01:55:04;7.95;;;4.28;;
11907;SDS011;6014;47.690;9.130;2023-04-30T01:57:36;7.87;;;4.17;;
11907;SDS011;6014;47.690;9.130;2023-04-30T02:00:11;7.40;;;3.90;;
11907;SDS011;6014;47.690;9.130;2023-04-30T02:02:42;8.40;;;4.07;;
11907;SDS011;6014;47.690;9.130;2023-04-30T02:05:11;8.30;;;4.00;;
11907;SDS011;6014;47.690;9.130;2023-04-30T02:07:40;9.63;;;4.03;;
11907;SDS011;6014;47.690;9.130;2023-04-30T02:10:09;6.70;;;3.63;;
11907;SDS011;6014;47.690;9.130;2023-04-30T02:12:38;7.67;;;3.80;;
11907;SDS011;6014;47.690;9.130;2023-04-30T02:15:06;6.10;;;3.30;;
11907;SDS011;6014;47.690;9.130;2023-04-30T02:17:39;6.60;;;3.33;;
11907;SDS011;6014;47.690;9.130;2023-04-30T02:20:11;7.80;;;4.13;;
11907;SDS011;6014;47.690;9.130;2023-04-30T02:22:46;6.88;;;3.50;;
11907;SDS011;6014;47.690;9.130;2023-04-30T02:25:25;8.20;;;4.15;;
11907;SDS011;6014;47.690;9.130;2023-04-30T02:27:56;6.63;;;3.60;;
11907;SDS011;6014;47.690;9.130;2023-04-30T02:30:24;6.97;;;3.43;;
11907;SDS011;6014;47.690;9.130;2023-04-30T02:32:55;8.10;;;3.97;;
11907;SDS011;6014;47.690;9.130;2023-04-30T02:35:23;7.67;;;3.60;;
11907;SDS011;6014;47.690;9.130;2023-04-30T02:37:51;7.20;;;3.97;;
11907;SDS011;6014;47.690;9.130;2023-04-30T02:40:26;9.00;;;4.60;;
11907;SDS011;6014;47.690;9.130;2023-04-30T02:42:54;6.28;;;3.15;;
11907;SDS011;6014;47.690;9.130;2023-04-30T02:45:28;7.45;;;3.63;;
11907;SDS011;6014;47.690;9.130;2023-04-30T02:47:59;7.35;;;3.90;;
11907;SDS011;6014;47.690;9.130;2023-04-30T02:50:27;6.97;;;3.88;;
11907;SDS011;6014;47.690;9.130;2023-04-30T02:52:56;6.78;;;3.30;;
11907;SDS011;6014;47.690;9.130;2023-04-30T02:55:23;6.28;;;3.45;;
11907;SDS011;6014;47.690;9.130;2023-04-30T02:57:53;8.80;;;3.90;;
11907;SDS011;6014;47.690;9.130;2023-04-30T03:00:21;7.43;;;3.67;;
11907;SDS011;6014;47.690;9.130;2023-04-30T03:02:49;7.45;;;3.70;;
11907;SDS011;6014;47.690;9.130;2023-04-30T03:05:19;7.55;;;3.83;;
11907;SDS011;6014;47.690;9.130;2023-04-30T03:07:47;6.80;;;3.55;;
11907;SDS011;6014;47.690;9.130;2023-04-30T03:10:15;8.90;;;3.70;;
11907;SDS011;6014;47.690;9.130;2023-04-30T03:12:44;7.78;;;3.97;;
11907;SDS011;6014;47.690;9.130;2023-04-30T03:15:12;7.03;;;3.88;;
11907;SDS011;6014;47.690;9.130;2023-04-30T03:17:40;7.80;;;3.92;;
11907;SDS011;6014;47.690;9.130;2023-04-30T03:20:11;6.53;;;3.53;;
11907;SDS011;6014;47.690;9.130;2023-04-30T03:22:57;8.18;;;4.35;;
11907;SDS011;6014;47.690;9.130;2023-04-30T03:25:25;6.30;;;3.20;;
11907;SDS011;6014;47.690;9.130;2023-04-30T03:27:55;7.00;;;3.80;;
11907;SDS011;6014;47.690;9.130;2023-04-30T03:30:23;6.10;;;3.17;;
11907;SDS011;6014;47.690;9.130;2023-04-30T03:32:51;8.18;;;4.38;;
11907;SDS011;6014;47.690;9.130;2023-04-30T03:35:19;5.95;;;3.17;;
11907;SDS011;6014;47.690;9.130;2023-04-30T03:37:48;6.47;;;3.15;;
11907;SDS011;6014;47.690;9.130;2023-04-30T03:40:17;6.38;;;3.70;;
11907;SDS011;6014;47.690;9.130;2023-04-30T03:42:46;12.38;;;5.03;;
11907;SDS011;6014;47.690;9.130;2023-04-30T03:45:17;5.95;;;2.83;;
11907;SDS011;6014;47.690;9.130;2023-04-30T03:47:45;6.55;;;3.10;;
11907;SDS011;6014;47.690;9.130;2023-04-30T03:50:14;5.38;;;2.88;;
11907;SDS011;6014;47.690;9.130;2023-04-30T03:52:44;5.50;;;3.20;;
11907;SDS011;6014;47.690;9.130;2023-04-30T03:55:12;5.95;;;2.78;;
11907;SDS011;6014;47.690;9.130;2023-04-30T03:57:42;5.85;;;2.80;;
11907;SDS011;6014;47.690;9.130;2023-04-30T04:00:10;5.88;;;3.00;;
11907;SDS011;6014;47.690;9.130;2023-04-30T04:02:47;5.85;;;2.97;;
11907;SDS011;6014;47.690;9.130;2023-04-30T04:05:22;6.35;;;3.15;;
11907;SDS011;6014;47.690;9.130;2023-04-30T04:07:51;7.00;;;3.40;;
11907;SDS011;6014;47.690;9.130;2023-04-30T04:10:19;6.43;;;3.30;;
11907;SDS011;6014;47.690;9.130;2023-04-30T04:12:49;6.35;;;3.10;;
11907;SDS011;6014;47.690;9.130;2023-04-30T04:15:17;6.32;;;2.90;;
11907;SDS011;6014;47.690;9.130;2023-04-30T04:17:45;6.68;;;3.58;;
11907;SDS011;6014;47.690;9.130;2023-04-30T04:20:13;6.22;;;3.40;;
11907;SDS011;6014;47.690;9.130;2023-04-30T04:22:41;6.85;;;3.75;;
11907;SDS011;6014;47.690;9.130;2023-04-30T04:25:10;7.68;;;3.83;;
11907;SDS011;6014;47.690;9.130;2023-04-30T04:27:39;6.25;;;3.83;;
11907;SDS011;6014;47.690;9.130;2023-04-30T04:30:14;6.97;;;3.42;;
11907;SDS011;6014;47.690;9.130;2023-04-30T04:32:42;6.53;;;3.67;;
11907;SDS011;6014;47.690;9.130;2023-04-30T04:35:15;7.97;;;4.30;;
11907;SDS011;6014;47.690;9.130;2023-04-30T04:37:43;7.40;;;3.78;;
11907;SDS011;6014;47.690;9.130;2023-04-30T04:40:12;7.65;;;4.60;;
11907;SDS011;6014;47.690;9.130;2023-04-30T04:42:40;8.15;;;4.30;;
11907;SDS011;6014;47.690;9.130;2023-04-30T04:45:08;7.70;;;4.05;;
11907;SDS011;6014;47.690;9.130;2023-04-30T04:47:38;6.55;;;3.63;;
11907;SDS011;6014;47.690;9.130;2023-04-30T04:50:07;8.70;;;4.15;;
11907;SDS011;6014;47.690;9.130;2023-04-30T04:52:35;7.20;;;4.22;;
11907;SDS011;6014;47.690;9.130;2023-04-30T04:55:04;7.30;;;3.83;;
11907;SDS011;6014;47.690;9.130;2023-04-30T04:57:39;7.10;;;3.97;;
11907;SDS011;6014;47.690;9.130;2023-04-30T05:00:07;8.15;;;4.03;;
11907;SDS011;6014;47.690;9.130;2023-04-30T05:02:38;6.72;;;3.88;;
11907;SDS011;6014;47.690;9.130;2023-04-30T05:05:07;7.68;;;4.45;;
11907;SDS011;6014;47.690;9.130;2023-04-30T05:07:36;7.75;;;4.30;;
11907;SDS011;6014;47.690;9.130;2023-04-30T05:10:04;6.28;;;3.40;;
11907;SDS011;6014;47.690;9.130;2023-04-30T05:12:39;6.95;;;4.00;;
11907;SDS011;6014;47.690;9.130;2023-04-30T05:15:07;8.02;;;4.50;;
11907;SDS011;6014;47.690;9.130;2023-04-30T05:17:35;9.45;;;4.38;;
11907;SDS011;6014;47.690;9.130;2023-04-30T05:22:39;7.07;;;3.85;;
11907;SDS011;6014;47.690;9.130;2023-04-30T05:25:07;6.55;;;4.10;;
11907;SDS011;6014;47.690;9.130;2023-04-30T05:27:35;8.38;;;4.10;;
11907;SDS011;6014;47.690;9.130;2023-04-30T05:30:04;6.22;;;3.58;;
11907;SDS011;6014;47.690;9.130;2023-04-30T05:32:42;5.53;;;3.83;;
11907;SDS011;6014;47.690;9.130;2023-04-30T05:35:17;6.18;;;3.60;;
11907;SDS011;6014;47.690;9.130;2023-04-30T05:37:45;7.38;;;3.67;;
11907;SDS011;6014;47.690;9.130;2023-04-30T05:40:13;8.05;;;3.80;;
11907;SDS011;6014;47.690;9.130;2023-04-30T05:42:41;5.18;;;3.22;;
11907;SDS011;6014;47.690;9.130;2023-04-30T05:45:23;6.93;;;3.60;;
11907;SDS011;6014;47.690;9.130;2023-04-30T05:48:00;5.63;;;3.35;;
11907;SDS011;6014;47.690;9.130;2023-04-30T05:50:30;7.38;;;3.70;;
11907;SDS011;6014;47.690;9.130;2023-04-30T05:55:29;7.10;;;3.42;;
11907;SDS011;6014;47.690;9.130;2023-04-30T05:57:57;6.43;;;3.70;;
11907;SDS011;6014;47.690;9.130;2023-04-30T06:00:25;5.97;;;3.20;;
11907;SDS011;6014;47.690;9.130;2023-04-30T06:02:55;6.00;;;3.45;;
11907;SDS011;6014;47.690;9.130;2023-04-30T06:05:23;6.13;;;3.13;;
11907;SDS011;6014;47.690;9.130;2023-04-30T06:10:40;5.93;;;3.45;;
11907;SDS011;6014;47.690;9.130;2023-04-30T06:13:09;6.18;;;3.53;;
11907;SDS011;6014;47.690;9.130;2023-04-30T06:15:37;5.80;;;3.13;;
11907;SDS011;6014;47.690;9.130;2023-04-30T06:18:05;5.07;;;3.08;;
11907;SDS011;6014;47.690;9.130;2023-04-30T06:20:44;6.22;;;3.75;;
11907;SDS011;6014;47.690;9.130;2023-04-30T06:23:13;6.45;;;3.45;;
11907;SDS011;6014;47.690;9.130;2023-04-30T06:25:41;6.43;;;3.40;;
11907;SDS011;6014;47.690;9.130;2023-04-30T06:28:09;6.55;;;3.40;;
11907;SDS011;6014;47.690;9.130;2023-04-30T06:30:39;7.28;;;4.07;;
11907;SDS011;6014;47.690;9.130;2023-04-30T06:33:14;6.57;;;3.45;;
11907;SDS011;6014;47.690;9.130;2023-04-30T06:35:42;7.45;;;3.90;;
11907;SDS011;6014;47.690;9.130;2023-04-30T06:40:44;7.63;;;4.07;;
11907;SDS011;6014;47.690;9.130;2023-04-30T06:43:12;6.47;;;3.40;;
11907;SDS011;6014;47.690;9.130;2023-04-30T06:45:40;6.65;;;3.67;;
11907;SDS011;6014;47.690;9.130;2023-04-30T06:48:08;7.65;;;3.92;;
11907;SDS011;6014;47.690;9.130;2023-04-30T06:50:41;7.07;;;4.00;;
11907;SDS011;6014;47.690;9.130;2023-04-30T06:53:10;6.57;;;4.35;;
11907;SDS011;6014;47.690;9.130;2023-04-30T06:55:43;6.93;;;4.10;;
11907;SDS011;6014;47.690;9.130;2023-04-30T06:58:11;6.63;;;3.83;;
11907;SDS011;6014;47.690;9.130;2023-04-30T07:00:39;7.68;;;4.28;;
11907;SDS011;6014;47.690;9.130;2023-04-30T07:03:14;6.32;;;3.70;;
11907;SDS011;6014;47.690;9.130;2023-04-30T07:05:43;7.85;;;3.53;;
11907;SDS011;6014;47.690;9.130;2023-04-30T07:08:11;7.22;;;4.15;;
11907;SDS011;6014;47.690;9.130;2023-04-30T07:10:52;6.78;;;3.80;;
11907;SDS011;6014;47.690;9.130;2023-04-30T07:16:09;7.00;;;3.90;;
11907;SDS011;6014;47.690;9.130;2023-04-30T07:18:40;6.72;;;3.88;;
11907;SDS011;6014;47.690;9.130;2023-04-30T07:21:08;6.57;;;3.95;;
11907;SDS011;6014;47.690;9.130;2023-04-30T07:23:36;6.57;;;3.42;;
11907;SDS011;6014;47.690;9.130;2023-04-30T07:26:05;7.90;;;3.45;;
11907;SDS011;6014;47.690;9.130;2023-04-30T07:28:33;7.18;;;3.75;;
11907;SDS011;6014;47.690;9.130;2023-04-30T07:31:01;6.18;;;3.70;;
11907;SDS011;6014;47.690;9.130;2023-04-30T07:36:15;6.97;;;3.53;;
11907;SDS011;6014;47.690;9.130;2023-04-30T07:38:43;6.25;;;3.55;;
11907;SDS011;6014;47.690;9.130;2023-04-30T07:41:17;7.70;;;3.67;;
11907;SDS011;6014;47.690;9.130;2023-04-30T07:43:45;6.40;;;3.38;;
11907;SDS011;6014;47.690;9.130;2023-04-30T07:46:13;6.85;;;3.83;;
11907;SDS011;6014;47.690;9.130;2023-04-30T07:48:41;7.25;;;3.75;;
11907;SDS011;6014;47.690;9.130;2023-04-30T07:51:09;6.40;;;3.78;;
11907;SDS011;6014;47.690;9.130;2023-04-30T07:53:37;6.50;;;3.38;;
11907;SDS011;6014;47.690;9.130;2023-04-30T07:56:08;6.38;;;3.28;;
11907;SDS011;6014;47.690;9.130;2023-04-30T07:58:38;6.68;;;3.63;;
11907;SDS011;6014;47.690;9.130;2023-04-30T08:01:08;5.30;;;3.10;;
11907;SDS011;6014;47.690;9.130;2023-04-30T08:03:37;5.43;;;3.30;;
11907;SDS011;6014;47.690;9.130;2023-04-30T08:06:05;7.80;;;3.50;;
11907;SDS011;6014;47.690;9.130;2023-04-30T08:08:33;5.78;;;3.25;;
11907;SDS011;6014;47.690;9.130;2023-04-30T08:11:01;5.57;;;2.67;;
11907;SDS011;6014;47.690;9.130;2023-04-30T08:13:29;5.50;;;3.33;;
11907;SDS011;6014;47.690;9.130;2023-04-30T08:15:59;6.18;;;3.40;;
11907;SDS011;6014;47.690;9.130;2023-04-30T08:18:28;5.35;;;3.33;;
11907;SDS011;6014;47.690;9.130;2023-04-30T08:20:56;5.70;;;3.10;;
11907;SDS011;6014;47.690;9.130;2023-04-30T08:23:24;5.70;;;3.30;;
11907;SDS011;6014;47.690;9.130;2023-04-30T08:25:52;6.22;;;3.30;;
11907;SDS011;6014;47.690;9.130;2023-04-30T08:28:21;5.20;;;2.97;;
11907;SDS011;6014;47.690;9.130;2023-04-30T08:30:49;4.90;;;2.55;;
11907;SDS011;6014;47.690;9.130;2023-04-30T08:33:18;5.13;;;3.03;;
11907;SDS011;6014;47.690;9.130;2023-04-30T08:35:46;5.22;;;2.90;;
11907;SDS011;6014;47.690;9.130;2023-04-30T08:41:19;5.25;;;2.83;;
11907;SDS011;6014;47.690;9.130;2023-04-30T08:43:53;5.05;;;2.75;;
11907;SDS011;6014;47.690;9.130;2023-04-30T08:46:33;5.07;;;2.40;;
11907;SDS011;6014;47.690;9.130;2023-04-30T08:49:06;4.65;;;2.47;;
11907;SDS011;6014;47.690;9.130;2023-04-30T08:51:35;5.07;;;2.60;;
11907;SDS011;6014;47.690;9.130;2023-04-30T08:54:03;4.43;;;2.30;;
11907;SDS011;6014;47.690;9.130;2023-04-30T08:56:32;4.43;;;2.38;;
11907;SDS011;6014;47.690;9.130;2023-04-30T08:59:00;4.88;;;2.50;;
11907;SDS011;6014;47.690;9.130;2023-04-30T09:01:28;4.20;;;2.40;;
11907;SDS011;6014;47.690;9.130;2023-04-30T09:03:56;4.78;;;2.42;;
11907;SDS011;6014;47.690;9.130;2023-04-30T09:06:26;4.20;;;2.17;;
11907;SDS011;6014;47.690;9.130;2023-04-30T09:08:55;4.80;;;2.70;;
11907;SDS011;6014;47.690;9.130;2023-04-30T09:11:24;5.25;;;2.80;;
11907;SDS011;6014;47.690;9.130;2023-04-30T09:13:53;4.75;;;2.65;;
11907;SDS011;6014;47.690;9.130;2023-04-30T09:16:25;4.70;;;2.70;;
11907;SDS011;6014;47.690;9.130;2023-04-30T09:18:58;5.50;;;2.53;;
11907;SDS011;6014;47.690;9.130;2023-04-30T09:21:31;4.68;;;2.40;;
11907;SDS011;6014;47.690;9.130;2023-04-30T09:24:03;4.85;;;2.50;;
11907;SDS011;6014;47.690;9.130;2023-04-30T09:29:04;3.85;;;2.28;;
11907;SDS011;6014;47.690;9.130;2023-04-30T09:31:34;4.70;;;2.60;;
11907;SDS011;6014;47.690;9.130;2023-04-30T09:34:04;3.75;;;2.13;;
11907;SDS011;6014;47.690;9.130;2023-04-30T09:36:34;7.57;;;2.50;;
11907;SDS011;6014;47.690;9.130;2023-04-30T09:39:10;5.20;;;2.40;;
11907;SDS011;6014;47.690;9.130;2023-04-30T09:41:42;5.03;;;2.85;;
11907;SDS011;6014;47.690;9.130;2023-04-30T09:44:26;3.65;;;2.00;;
11907;SDS011;6014;47.690;9.130;2023-04-30T09:46:55;4.68;;;2.50;;
11907;SDS011;6014;47.690;9.130;2023-04-30T09:49:24;3.83;;;1.95;;
11907;SDS011;6014;47.690;9.130;2023-04-30T09:51:57;5.45;;;2.20;;
11907;SDS011;6014;47.690;9.130;2023-04-30T09:54:35;4.40;;;2.33;;
11907;SDS011;6014;47.690;9.130;2023-04-30T09:57:10;3.25;;;1.90;;
11907;SDS011;6014;47.690;9.130;2023-04-30T10:02:19;4.28;;;2.25;;
11907;SDS011;6014;47.690;9.130;2023-04-30T10:04:57;3.67;;;1.77;;
11907;SDS011;6014;47.690;9.130;2023-04-30T10:07:47;4.18;;;2.03;;
11907;SDS011;6014;47.690;9.130;2023-04-30T10:10:21;3.47;;;2.00;;
11907;SDS011;6014;47.690;9.130;2023-04-30T10:12:53;4.45;;;2.00;;
11907;SDS011;6014;47.690;9.130;2023-04-30T10:15:38;4.35;;;2.40;;
11907;SDS011;6014;47.690;9.130;2023-04-30T10:18:13;3.80;;;2.10;;
11907;SDS011;6014;47.690;9.130;2023-04-30T10:20:57;3.75;;;2.20;;
11907;SDS011;6014;47.690;9.130;2023-04-30T10:23:32;3.60;;;1.85;;
11907;SDS011;6014;47.690;9.130;2023-04-30T10:26:00;3.70;;;2.20;;
11907;SDS011;6014;47.690;9.130;2023-04-30T10:28:32;3.45;;;1.90;;
11907;SDS011;6014;47.690;9.130;2023-04-30T10:31:18;3.58;;;2.20;;
11907;SDS011;6014;47.690;9.130;2023-04-30T10:33:50;4.30;;;2.38;;
11907;SDS011;6014;47.690;9.130;2023-04-30T10:36:39;3.95;;;2.25;;
11907;SDS011;6014;47.690;9.130;2023-04-30T10:44:20;5.47;;;2.60;;
11907;SDS011;6014;47.690;9.130;2023-04-30T10:46:49;4.00;;;2.08;;
11907;SDS011;6014;47.690;9.130;2023-04-30T10:49:26;3.38;;;1.88;;
11907;SDS011;6014;47.690;9.130;2023-04-30T10:52:05;5.55;;;2.28;;
11907;SDS011;6014;47.690;9.130;2023-04-30T10:54:36;6.28;;;2.53;;
11907;SDS011;6014;47.690;9.130;2023-04-30T10:57:08;7.05;;;3.65;;
11907;SDS011;6014;47.690;9.130;2023-04-30T10:59:41;4.50;;;2.20;;
11907;SDS011;6014;47.690;9.130;2023-04-30T11:02:19;5.63;;;2.10;;
11907;SDS011;6014;47.690;9.130;2023-04-30T11:07:45;4.25;;;1.95;;
11907;SDS011;6014;47.690;9.130;2023-04-30T11:10:18;3.28;;;1.92;;
11907;SDS011;6014;47.690;9.130;2023-04-30T11:12:49;3.63;;;1.90;;
11907;SDS011;6014;47.690;9.130;2023-04-30T11:15:38;4.60;;;2.17;;
11907;SDS011;6014;47.690;9.130;2023-04-30T11:18:08;4.05;;;1.90;;
11907;SDS011;6014;47.690;9.130;2023-04-30T11:20:38;4.05;;;2.25;;
11907;SDS011;6014;47.690;9.130;2023-04-30T11:23:07;3.75;;;2.00;;
11907;SDS011;6014;47.690;9.130;2023-04-30T11:25:41;3.90;;;1.98;;
11907;SDS011;6014;47.690;9.130;2023-04-30T11:30:51;4.40;;;2.40;;
11907;SDS011;6014;47.690;9.130;2023-04-30T11:33:20;3.95;;;1.92;;
11907;SDS011;6014;47.690;9.130;2023-04-30T11:35:49;3.92;;;2.10;;
11907;SDS011;6014;47.690;9.130;2023-04-30T11:38:19;3.28;;;1.70;;
11907;SDS011;6014;47.690;9.130;2023-04-30T11:40:49;3.47;;;1.88;;
11907;SDS011;6014;47.690;9.130;2023-04-30T11:45:58;3.75;;;1.95;;
11907;SDS011;6014;47.690;9.130;2023-04-30T11:48:31;2.70;;;1.60;;
11907;SDS011;6014;47.690;9.130;2023-04-30T11:51:04;3.53;;;1.95;;
11907;SDS011;6014;47.690;9.130;2023-04-30T11:53:40;3.55;;;1.77;;
11907;SDS011;6014;47.690;9.130;2023-04-30T11:56:10;5.45;;;2.20;;
11907;SDS011;6014;47.690;9.130;2023-04-30T11:58:45;3.17;;;1.73;;
11907;SDS011;6014;47.690;9.130;2023-04-30T12:01:13;2.58;;;1.63;;
11907;SDS011;6014;47.690;9.130;2023-04-30T12:03:42;3.72;;;1.98;;
11907;SDS011;6014;47.690;9.130;2023-04-30T12:09:02;3.67;;;2.00;;
11907;SDS011;6014;47.690;9.130;2023-04-30T12:11:43;3.67;;;2.13;;
11907;SDS011;6014;47.690;9.130;2023-04-30T12:14:17;4.05;;;1.70;;
11907;SDS011;6014;47.690;9.130;2023-04-30T12:16:47;4.07;;;1.60;;
11907;SDS011;6014;47.690;9.130;2023-04-30T12:19:16;3.67;;;1.70;;
11907;SDS011;6014;47.690;9.130;2023-04-30T12:21:46;3.45;;;1.83;;
11907;SDS011;6014;47.690;9.130;2023-04-30T12:26:54;2.45;;;1.48;;
11907;SDS011;6014;47.690;9.130;2023-04-30T12:29:25;3.17;;;1.75;;
11907;SDS011;6014;47.690;9.130;2023-04-30T12:31:54;4.07;;;2.00;;
11907;SDS011;6014;47.690;9.130;2023-04-30T12:34:29;3.83;;;1.73;;
11907;SDS011;6014;47.690;9.130;2023-04-30T12:37:01;3.15;;;1.65;;
11907;SDS011;6014;47.690;9.130;2023-04-30T12:39:40;3.83;;;1.92;;
11907;SDS011;6014;47.690;9.130;2023-04-30T12:42:24;2.78;;;1.50;;
11907;SDS011;6014;47.690;9.130;2023-04-30T12:44:59;3.60;;;1.92;;
11907;SDS011;6014;47.690;9.130;2023-04-30T12:47:28;3.88;;;1.70;;
11907;SDS011;6014;47.690;9.130;2023-04-30T12:49:56;2.75;;;1.48;;
11907;SDS011;6014;47.690;9.130;2023-04-30T12:52:26;2.08;;;1.30;;
11907;SDS011;6014;47.690;9.130;2023-04-30T12:54:54;3.60;;;1.70;;
11907;SDS011;6014;47.690;9.130;2023-04-30T12:57:24;4.85;;;1.90;;
11907;SDS011;6014;47.690;9.130;2023-04-30T13:00:01;3.53;;;1.75;;
11907;SDS011;6014;47.690;9.130;2023-04-30T13:02:30;3.88;;;1.85;;
11907;SDS011;6014;47.690;9.130;2023-04-30T13:04:59;2.35;;;1.55;;
11907;SDS011;6014;47.690;9.130;2023-04-30T13:07:35;3.40;;;1.77;;
11907;SDS011;6014;47.690;9.130;2023-04-30T13:10:05;2.78;;;1.52;;
11907;SDS011;6014;47.690;9.130;2023-04-30T13:12:35;2.72;;;1.60;;
11907;SDS011;6014;47.690;9.130;2023-04-30T13:15:03;3.10;;;1.60;;
11907;SDS011;6014;47.690;9.130;2023-04-30T13:17:38;3.22;;;1.60;;
11907;SDS011;6014;47.690;9.130;2023-04-30T13:20:07;3.10;;;1.75;;
11907;SDS011;6014;47.690;9.130;2023-04-30T13:22:36;3.42;;;1.75;;
11907;SDS011;6014;47.690;9.130;2023-04-30T13:25:05;3.42;;;1.83;;
11907;SDS011;6014;47.690;9.130;2023-04-30T13:27:37;3.38;;;1.77;;
11907;SDS011;6014;47.690;9.130;2023-04-30T13:30:06;3.42;;;1.92;;
11907;SDS011;6014;47.690;9.130;2023-04-30T13:32:35;5.75;;;2.78;;
11907;SDS011;6014;47.690;9.130;2023-04-30T13:35:11;4.72;;;1.70;;
11907;SDS011;6014;47.690;9.130;2023-04-30T13:37:43;2.85;;;1.70;;
11907;SDS011;6014;47.690;9.130;2023-04-30T13:40:21;3.15;;;1.70;;
11907;SDS011;6014;47.690;9.130;2023-04-30T13:45:36;3.40;;;1.80;;
11907;SDS011;6014;47.690;9.130;2023-04-30T13:48:12;4.45;;;2.10;;
11907;SDS011;6014;47.690;9.130;2023-04-30T13:50:40;3.22;;;1.50;;
11907;SDS011;6014;47.690;9.130;2023-04-30T13:53:14;2.22;;;1.50;;
11907;SDS011;6014;47.690;9.130;2023-04-30T13:55:43;3.05;;;1.75;;
11907;SDS011;6014;47.690;9.130;2023-04-30T13:58:13;3.40;;;1.67;;
11907;SDS011;6014;47.690;9.130;2023-04-30T14:00:42;2.22;;;1.50;;
11907;SDS011;6014;47.690;9.130;2023-04-30T14:03:13;3.42;;;1.90;;
11907;SDS011;6014;47.690;9.130;2023-04-30T14:05:43;2.72;;;1.70;;
11907;SDS011;6014;47.690;9.130;2023-04-30T14:08:19;3.35;;;2.10;;
11907;SDS011;6014;47.690;9.130;2023-04-30T14:10:57;5.25;;;1.65;;
11907;SDS011;6014;47.690;9.130;2023-04-30T14:13:27;4.85;;;1.63;;
11907;SDS011;6014;47.690;9.130;2023-04-30T14:18:33;3.25;;;1.52;;
11907;SDS011;6014;47.690;9.130;2023-04-30T14:21:11;3.33;;;1.90;;
11907;SDS011;6014;47.690;9.130;2023-04-30T14:23:40;3.17;;;1.80;;
11907;SDS011;6014;47.690;9.130;2023-04-30T14:26:27;2.95;;;1.60;;
11907;SDS011;6014;47.690;9.130;2023-04-30T14:28:57;2.70;;;1.60;;
11907;SDS011;6014;47.690;9.130;2023-04-30T14:31:28;3.65;;;1.92;;
11907;SDS011;6014;47.690;9.130;2023-04-30T14:33:56;4.20;;;1.88;;
11907;SDS011;6014;47.690;9.130;2023-04-30T14:36:30;3.55;;;1.60;;
11907;SDS011;6014;47.690;9.130;2023-04-30T14:41:32;3.20;;;1.85;;
11907;SDS011;6014;47.690;9.130;2023-04-30T14:44:04;3.08;;;1.90;;
11907;SDS011;6014;47.690;9.130;2023-04-30T14:46:32;3.03;;;1.73;;
11907;SDS011;6014;47.690;9.130;2023-04-30T14:49:02;2.00;;;1.40;;
11907;SDS011;6014;47.690;9.130;2023-04-30T14:51:31;3.25;;;1.65;;
11907;SDS011;6014;47.690;9.130;2023-04-30T14:54:00;3.20;;;1.90;;
11907;SDS011;6014;47.690;9.130;2023-04-30T14:56:31;3.15;;;1.80;;
11907;SDS011;6014;47.690;9.130;2023-04-30T14:59:00;2.47;;;1.50;;
11907;SDS011;6014;47.690;9.130;2023-04-30T15:01:30;3.08;;;1.85;;
11907;SDS011;6014;47.690;9.130;2023-04-30T15:03:58;2.35;;;1.38;;
11907;SDS011;6014;47.690;9.130;2023-04-30T15:06:29;3.60;;;2.00;;
11907;SDS011;6014;47.690;9.130;2023-04-30T15:08:59;4.10;;;2.22;;
11907;SDS011;6014;47.690;9.130;2023-04-30T15:11:27;5.90;;;2.78;;
11907;SDS011;6014;47.690;9.130;2023-04-30T15:14:08;3.85;;;2.15;;
11907;SDS011;6014;47.690;9.130;2023-04-30T15:16:38;3.63;;;1.90;;
11907;SDS011;6014;47.690;9.130;2023-04-30T15:19:06;3.00;;;1.85;;
11907;SDS011;6014;47.690;9.130;2023-04-30T15:21:41;4.15;;;2.22;;
11907;SDS011;6014;47.690;9.130;2023-04-30T15:24:12;3.47;;;1.80;;
11907;SDS011;6014;47.690;9.130;2023-04-30T15:26:43;4.65;;;2.15;;
11907;SDS011;6014;47.690;9.130;2023-04-30T15:29:11;3.80;;;2.22;;
11907;SDS011;6014;47.690;9.130;2023-04-30T15:31:41;2.92;;;1.80;;
11907;SDS011;6014;47.690;9.130;2023-04-30T15:34:09;4.38;;;2.10;;
11907;SDS011;6014;47.690;9.130;2023-04-30T15:36:38;4.72;;;1.77;;
11907;SDS011;6014;47.690;9.130;2023-04-30T15:41:47;3.38;;;1.63;;
11907;SDS011;6014;47.690;9.130;2023-04-30T15:44:21;2.78;;;1.77;;
11907;SDS011;6014;47.690;9.130;2023-04-30T15:46:51;3.38;;;1.70;;
11907;SDS011;6014;47.690;9.130;2023-04-30T15:49:23;3.08;;;1.88;;
11907;SDS011;6014;47.690;9.130;2023-04-30T15:51:51;3.05;;;1.77;;
11907;SDS011;6014;47.690;9.130;2023-04-30T15:54:20;3.40;;;1.88;;
11907;SDS011;6014;47.690;9.130;2023-04-30T15:56:48;3.90;;;1.77;;
11907;SDS011;6014;47.690;9.130;2023-04-30T15:59:17;3.28;;;1.90;;
11907;SDS011;6014;47.690;9.130;2023-04-30T16:01:45;3.35;;;1.70;;
11907;SDS011;6014;47.690;9.130;2023-04-30T16:04:15;2.78;;;1.55;;
11907;SDS011;6014;47.690;9.130;2023-04-30T16:06:46;4.30;;;1.80;;
11907;SDS011;6014;47.690;9.130;2023-04-30T16:09:14;3.42;;;1.77;;
11907;SDS011;6014;47.690;9.130;2023-04-30T16:11:44;4.22;;;1.90;;
11907;SDS011;6014;47.690;9.130;2023-04-30T16:14:14;3.38;;;1.80;;
11907;SDS011;6014;47.690;9.130;2023-04-30T16:16:52;3.67;;;2.00;;
11907;SDS011;6014;47.690;9.130;2023-04-30T16:19:21;2.97;;;1.70;;
11907;SDS011;6014;47.690;9.130;2023-04-30T16:24:20;5.03;;;1.80;;